»·PEaware :: UAL515 KSLC-KABQ

UAL515 :: KSLC-KABQ

FLIGHT INFORMATION

Flight Status: Arrived
Operator:
United Airlines
More flights by this operator :: More flights under this callsign
Pilot: Doug L. (8712)
Aircraft: BOEING 767-300
(B763)
More flights by this aircraft type
Origin: KSLC Salt Lake City Intl
United States
Destination: KABQ Albuquerque Intl Sunport
United States
More flights between these airports :: More routes between these airports
Route: +ZIONZ1 EYELO RSK J15 / ROSEI LOWBO3
File this flight plan on PilotEdge
Remarks:
Altitude:
(Current/Filed)
35,000ft
Speed:
(Current/Filed)
475kts
Departed: 17-Oct-18 11:14 AM
Arrived: 17-Oct-18 12:25 PM
Distance/Time
Traveled:
428nm/1:11
Distance/Time
To Go:
Arrived

Flight Plot

Page will automatically refresh every two minutes.

Flight plan parsing failed; only flown route is shown


Map Options




Map Legend


Flown Route
Filed Route
Departure Airport
Arrival Airport
Navaid (VOR, NDB)
Fix

Horizontal Profiles

Position Reports

Time Latitude Longitude Heading Altitude Ground
Speed
17-Oct-18 10:57 40.784696 -111.977493 325 4238ft 0kts
17-Oct-18 10:58 40.784696 -111.977493 325 4238ft 0kts
17-Oct-18 10:59 40.784696 -111.977493 325 4238ft 0kts
17-Oct-18 11:00 40.784696 -111.977493 325 4238ft 0kts
17-Oct-18 11:01 40.784696 -111.977493 325 4238ft 0kts
17-Oct-18 11:02 40.784696 -111.977493 325 4238ft 0kts
17-Oct-18 11:03 40.784696 -111.977493 325 4238ft 0kts
17-Oct-18 11:04 40.784696 -111.977493 325 4238ft 0kts
17-Oct-18 11:05 40.784695 -111.977493 325 4238ft 0kts
17-Oct-18 11:06 40.784695 -111.977493 325 4238ft 0kts
17-Oct-18 11:07 40.784405 -111.977263 357 4238ft 2kts
17-Oct-18 11:08 40.784061 -111.977630 89 4238ft 1kts
17-Oct-18 11:09 40.784059 -111.977686 84 4238ft 0kts
17-Oct-18 11:10 40.784059 -111.977686 84 4238ft 0kts
17-Oct-18 11:11 40.784119 -111.977040 80 4238ft 8kts
17-Oct-18 11:12 40.789426 -111.977001 355 4238ft 30kts
17-Oct-18 11:13 40.797287 -111.977912 356 4238ft 29kts
17-Oct-18 11:14 40.804969 -111.978367 356 4238ft 27kts
17-Oct-18 11:15 40.806817 -111.976874 165 4238ft 11kts
17-Oct-18 11:16 40.784821 -111.974068 171 4568ft 177kts
17-Oct-18 11:17 40.730956 -111.966456 172 7145ft 219kts
17-Oct-18 11:18 40.665880 -111.962070 176 10100ft 249kts
17-Oct-18 11:19 40.594392 -111.958619 176 12736ft 291kts
17-Oct-18 11:20 40.505113 -111.954179 176 15504ft 341kts
17-Oct-18 11:21 40.408994 -111.948386 174 18938ft 356kts
17-Oct-18 11:22 40.308650 -111.941453 174 21979ft 373kts
17-Oct-18 11:23 40.212002 -111.893033 146 24048ft 390kts
17-Oct-18 11:24 40.112557 -111.809417 142 24938ft 449kts
17-Oct-18 11:25 40.006958 -111.726306 146 28271ft 441kts
17-Oct-18 11:26 39.901830 -111.646849 146 31086ft 436kts
17-Oct-18 11:27 39.798430 -111.569079 145 33438ft 433kts
17-Oct-18 11:28 39.694942 -111.491479 145 34781ft 448kts
17-Oct-18 11:29 39.587246 -111.411083 145 35382ft 445kts
17-Oct-18 11:30 39.481400 -111.330433 145 35610ft 448kts
17-Oct-18 11:31 39.375409 -111.249259 145 37273ft 445kts
17-Oct-18 11:32 39.269464 -111.168395 145 38491ft 444kts
17-Oct-18 11:33 39.163094 -111.087476 145 39333ft 446kts
17-Oct-18 11:34 39.057404 -111.007377 147 39405ft 439kts
17-Oct-18 11:35 38.953073 -110.928525 150 39400ft 430kts
17-Oct-18 11:36 38.851213 -110.851874 153 39409ft 430kts
17-Oct-18 11:37 38.750947 -110.770006 141 39401ft 438kts
17-Oct-18 11:38 38.667039 -110.655402 137 39405ft 441kts
17-Oct-18 11:39 38.584288 -110.540911 137 39404ft 441kts
17-Oct-18 11:40 38.501002 -110.425960 137 39404ft 441kts
17-Oct-18 11:41 38.418642 -110.312686 138 39396ft 440kts
17-Oct-18 11:42 38.335554 -110.198825 138 39395ft 440kts
17-Oct-18 11:43 38.252354 -110.085221 138 39396ft 441kts
17-Oct-18 11:44 38.169056 -109.971890 138 39411ft 440kts
17-Oct-18 11:45 38.085378 -109.858456 138 39455ft 440kts
17-Oct-18 11:46 38.001881 -109.745666 138 39461ft 440kts
17-Oct-18 11:47 37.918548 -109.633500 138 39461ft 440kts
17-Oct-18 11:48 37.835174 -109.521682 138 39472ft 440kts
17-Oct-18 11:49 37.751202 -109.409453 138 39471ft 440kts
17-Oct-18 11:50 37.667601 -109.298110 138 39467ft 439kts
17-Oct-18 11:51 37.583760 -109.186840 138 39466ft 439kts
17-Oct-18 11:52 37.499778 -109.075731 140 39436ft 439kts
17-Oct-18 11:53 37.415761 -108.965007 142 39405ft 440kts
17-Oct-18 11:54 37.331549 -108.854445 142 39400ft 441kts
17-Oct-18 11:55 37.247077 -108.743897 142 39401ft 441kts
17-Oct-18 11:56 37.162435 -108.633495 142 39399ft 440kts
17-Oct-18 11:57 37.077467 -108.523036 142 39396ft 441kts
17-Oct-18 11:58 36.992259 -108.412662 143 39385ft 444kts
17-Oct-18 11:59 36.909149 -108.305386 144 39368ft 445kts
17-Oct-18 12:00 36.826336 -108.198851 144 39389ft 445kts
17-Oct-18 12:01 36.738081 -108.092594 156 39382ft 428kts
17-Oct-18 12:02 36.638977 -108.014754 158 39386ft 425kts
17-Oct-18 12:03 36.538667 -107.937547 158 39386ft 425kts
17-Oct-18 12:04 36.437740 -107.860279 158 38538ft 431kts
17-Oct-18 12:05 36.336957 -107.783298 158 36578ft 425kts
17-Oct-18 12:06 36.243435 -107.690567 151 34634ft 438kts
17-Oct-18 12:07 36.145095 -107.604540 157 32688ft 429kts
17-Oct-18 12:08 36.038028 -107.558921 171 30683ft 402kts
17-Oct-18 12:09 35.928605 -107.523378 169 27767ft 412kts
17-Oct-18 12:10 35.842514 -107.495401 168 25783ft 367kts
17-Oct-18 12:11 35.738708 -107.461190 167 22968ft 325kts
17-Oct-18 12:12 35.667592 -107.438417 167 22419ft 312kts
17-Oct-18 12:13 35.568693 -107.406827 166 22424ft 315kts
17-Oct-18 12:14 35.483517 -107.379691 166 21864ft 321kts
17-Oct-18 12:15 35.416461 -107.344076 137 20361ft 331kts
17-Oct-18 12:16 35.356423 -107.233375 127 18318ft 336kts
17-Oct-18 12:17 35.319179 -107.160476 126 16507ft 292kts
17-Oct-18 12:18 35.273848 -107.084031 138 14432ft 266kts
17-Oct-18 12:19 35.219369 -107.020870 138 12538ft 283kts
17-Oct-18 12:20 35.161398 -106.955163 135 10474ft 256kts
17-Oct-18 12:21 35.109558 -106.893367 135 9014ft 254kts
17-Oct-18 12:22 35.068817 -106.835226 130 8785ft 223kts
17-Oct-18 12:23 35.045493 -106.768328 93 8003ft 221kts
17-Oct-18 12:24 35.045836 -106.704551 95 7100ft 159kts
17-Oct-18 12:25 35.044873 -106.654395 90 5824ft 150kts
17-Oct-18 12:26 35.044237 -106.607319 90 5323ft 96kts
17-Oct-18 12:27 35.045738 -106.596311 301 5329ft 4kts
17-Oct-18 12:28 35.045839 -106.598085 268 5328ft 13kts
17-Oct-18 12:29 35.045759 -106.604627 268 5326ft 23kts
17-Oct-18 12:30 35.045804 -106.612607 271 5323ft 23kts
17-Oct-18 12:31 35.045581 -106.619239 276 5313ft 10kts
17-Oct-18 12:32 35.047094 -106.618843 73 5313ft 0kts

Navigation Log

Ident Type
Flight plan parsing failed, navigation log unavailable